Time;durP1;ratioP1;P1;durP2;ratioP2;P2;SDS_P1;SDS_P2;PMS_P1;PMS_P2;Temp;Humidity;BMP_temperature;BMP_pressure;BME280_temperature;BME280_humidity;BME280_pressure;Samples;Min_cycle;Max_cycle;Signal;HPM_P1;HPM_P2
2022/07/05 00:00:30;;;;;;;3.70;2.17;;;;;;;23.25;67.24;98692.22;4364784;32;20161;-72
2022/07/05 00:02:58;;;;;;;3.35;2.12;;;;;;;23.21;67.42;98675.81;4364357;32;20150;-72
2022/07/05 00:05:25;;;;;;;7.18;2.03;;;;;;;23.12;67.86;98685.97;4364233;32;20382;-72
2022/07/05 00:07:52;;;;;;;4.57;1.83;;;;;;;23.13;67.83;98679.56;4363369;32;20106;-71
2022/07/05 00:10:20;;;;;;;6.07;2.10;;;;;;;23.14;67.19;98675.06;4364570;32;20130;-71
2022/07/05 00:12:47;;;;;;;5.12;1.90;;;;;;;23.08;66.81;98668.69;4364512;32;20099;-71
2022/07/05 00:15:14;;;;;;;4.82;1.80;;;;;;;23.08;66.19;98666.03;4364100;32;20103;-71
2022/07/05 00:17:42;;;;;;;2.47;1.62;;;;;;;23.07;66.04;98663.56;4364316;32;20087;-71
2022/07/05 00:20:09;;;;;;;4.22;2.10;;;;;;;23.10;65.98;98655.16;4364371;32;20133;-71
2022/07/05 00:22:36;;;;;;;3.37;2.00;;;;;;;23.01;66.02;98655.41;4364308;32;20099;-71
2022/07/05 00:25:04;;;;;;;5.43;2.00;;;;;;;23.00;66.18;98643.09;4364306;32;20117;-72
2022/07/05 00:27:31;;;;;;;3.75;2.00;;;;;;;22.90;66.48;98644.63;4364218;32;20158;-71
2022/07/05 00:29:58;;;;;;;2.65;1.50;;;;;;;22.86;66.43;98650.41;4364183;32;20477;-71
2022/07/05 00:32:25;;;;;;;2.03;1.83;;;;;;;22.82;65.93;98641.19;4364460;32;20122;-71
2022/07/05 00:34:53;;;;;;;3.35;1.80;;;;;;;22.84;65.49;98644.47;4364214;32;20106;-72
2022/07/05 00:37:20;;;;;;;2.78;1.73;;;;;;;22.81;65.13;98644.09;4364080;32;20082;-71
2022/07/05 00:39:47;;;;;;;2.22;1.55;;;;;;;22.84;65.03;98644.47;4364181;32;20158;-72
2022/07/05 00:42:14;;;;;;;6.90;1.50;;;;;;;22.80;64.73;98637.94;4364158;32;20166;-71
2022/07/05 00:44:41;;;;;;;2.50;1.52;;;;;;;22.74;64.55;98643.31;4364124;32;20351;-71
2022/07/05 00:47:11;;;;;;;2.75;1.50;;;;;;;22.71;64.69;98638.41;4364361;32;20087;-71
2022/07/05 00:49:39;;;;;;;1.77;1.58;;;;;;;22.67;64.74;98641.53;4364049;32;20098;-71
2022/07/05 00:52:06;;;;;;;1.80;1.48;;;;;;;22.61;64.71;98631.72;4364049;32;20103;-71
2022/07/05 00:54:49;;;;;;;3.47;1.73;;;;;;;22.61;64.44;98630.91;4364153;32;20507;-72
2022/07/05 00:57:19;;;;;;;1.62;1.40;;;;;;;22.60;64.31;98637.28;4363954;32;20522;-71
2022/07/05 00:59:47;;;;;;;3.20;1.77;;;;;;;22.58;64.39;98639.38;4364096;32;20457;-71
2022/07/05 01:02:14;;;;;;;1.80;1.65;;;;;;;22.57;64.80;98633.19;4363884;32;20158;-71
2022/07/05 01:04:47;;;;;;;2.87;1.45;;;;;;;22.53;65.04;98621.34;4364200;32;20087;-72
2022/07/05 01:07:19;;;;;;;2.60;1.37;;;;;;;22.53;64.95;98623.16;4350562;32;20134;-72
2022/07/05 01:09:46;;;;;;;3.90;1.50;;;;;;;22.57;64.29;98627.03;4350538;32;20099;-72
2022/07/05 01:12:13;;;;;;;3.15;1.45;;;;;;;22.47;64.58;98636.37;4364202;32;20103;-71
2022/07/05 01:14:42;;;;;;;3.47;1.60;;;;;;;22.45;64.49;98640.28;4363949;32;20087;-71
2022/07/05 01:17:10;;;;;;;4.60;1.73;;;;;;;22.42;64.37;98638.88;4363967;32;20110;-72
2022/07/05 01:19:38;;;;;;;4.03;1.48;;;;;;;22.40;64.33;98632.94;4363410;32;20099;-72
2022/07/05 01:22:19;;;;;;;1.92;1.40;;;;;;;22.41;64.11;98629.22;4363654;32;20095;-71
2022/07/05 01:24:47;;;;;;;6.75;1.45;;;;;;;22.41;63.60;98623.91;4363787;32;20078;-71
2022/07/05 01:27:15;;;;;;;1.92;1.55;;;;;;;22.41;63.52;98626.56;4363591;32;20091;-71
2022/07/05 01:29:43;;;;;;;2.80;1.50;;;;;;;22.36;63.49;98617.56;4363293;32;20118;-71
2022/07/05 01:32:10;;;;;;;2.17;1.52;;;;;;;22.38;63.63;98627.00;4363651;32;20125;-71
2022/07/05 01:34:38;;;;;;;1.87;1.62;;;;;;;22.42;63.73;98624.69;4363588;32;20121;-72
2022/07/05 01:37:06;;;;;;;2.10;1.70;;;;;;;22.38;63.80;98624.31;4363524;32;20115;-71
2022/07/05 01:39:34;;;;;;;2.28;1.70;;;;;;;22.36;63.75;98630.91;4350097;32;20437;-71
2022/07/05 01:42:02;;;;;;;2.40;1.73;;;;;;;22.36;62.90;98628.25;4350174;32;20116;-72
2022/07/05 01:44:30;;;;;;;2.75;1.85;;;;;;;22.46;62.18;98628.56;4363462;32;20083;-72
2022/07/05 01:47:04;;;;;;;2.95;1.48;;;;;;;22.48;61.45;98623.81;4363726;32;20090;-71
2022/07/05 01:49:35;;;;;;;2.10;1.60;;;;;;;22.55;61.15;98618.44;4363275;32;20159;-71
2022/07/05 01:52:09;;;;;;;1.58;1.30;;;;;;;22.58;60.74;98618.81;4350352;32;20442;-71
2022/07/05 01:54:37;;;;;;;1.87;1.40;;;;;;;22.63;60.32;98620.81;4363600;32;20082;-72
2022/07/05 01:57:07;;;;;;;2.03;1.37;;;;;;;22.66;60.20;98615.88;4363226;32;20167;-71
2022/07/05 01:59:36;;;;;;;5.28;2.28;;;;;;;22.71;59.33;98617.91;4350002;32;20160;-72
2022/07/05 02:02:04;;;;;;;3.10;1.60;;;;;;;22.78;58.67;98623.97;4363081;32;20555;-72
2022/07/05 02:04:34;;;;;;;3.28;1.50;;;;;;;22.83;57.55;98629.47;4363153;32;20091;-71
2022/07/05 02:07:06;;;;;;;4.07;1.42;;;;;;;22.93;56.94;98625.50;4363061;32;20142;-71
2022/07/05 02:09:35;;;;;;;2.12;1.37;;;;;;;22.97;56.72;98610.66;4350125;32;20126;-72
2022/07/05 02:12:04;;;;;;;1.70;1.40;;;;;;;23.06;56.34;98616.50;4362970;32;20528;-71
2022/07/05 02:14:32;;;;;;;1.67;1.50;;;;;;;23.12;56.06;98608.47;4363179;32;20768;-71
2022/07/05 02:16:59;;;;;;;1.90;1.42;;;;;;;23.14;56.06;98603.69;4363297;32;20095;-71
2022/07/05 02:19:27;;;;;;;1.75;1.50;;;;;;;23.14;56.26;98605.56;4363222;32;20462;-71
2022/07/05 02:21:55;;;;;;;1.42;1.33;;;;;;;23.19;55.97;98598.53;4363094;32;20162;-71
2022/07/05 02:24:22;;;;;;;5.32;1.80;;;;;;;23.18;56.24;98602.22;4363163;32;20096;-71
2022/07/05 02:26:51;;;;;;;1.80;1.40;;;;;;;23.19;56.39;98598.53;4362971;32;20095;-71
2022/07/05 02:29:18;;;;;;;2.67;1.73;;;;;;;23.17;56.65;98605.13;4349694;32;20103;-71
2022/07/05 02:31:45;;;;;;;1.67;1.58;;;;;;;23.13;56.99;98606.59;4364637;32;20138;-72
2022/07/05 02:34:13;;;;;;;1.85;1.55;;;;;;;23.05;57.60;98610.34;4364958;32;20130;-72
2022/07/05 02:36:40;;;;;;;1.77;1.55;;;;;;;23.06;57.64;98609.31;4364943;32;20157;-72
2022/07/05 02:39:08;;;;;;;1.90;1.30;;;;;;;23.03;58.00;98615.91;4365168;32;20157;-71
2022/07/05 02:41:36;;;;;;;3.60;1.40;;;;;;;22.98;58.36;98614.94;4364857;32;20099;-72
2022/07/05 02:44:03;;;;;;;1.85;1.65;;;;;;;22.94;58.90;98619.13;4365262;32;20366;-71
2022/07/05 02:46:31;;;;;;;2.00;1.50;;;;;;;22.88;59.77;98623.47;4364983;32;20385;-71
2022/07/05 02:48:59;;;;;;;1.85;1.60;;;;;;;22.82;60.61;98630.50;4365138;32;20122;-71
2022/07/05 02:51:26;;;;;;;2.90;1.75;;;;;;;22.67;61.44;98622.84;4365024;32;20086;-71
2022/07/05 02:53:54;;;;;;;6.25;1.77;;;;;;;22.65;61.89;98613.41;4365117;32;20150;-72
2022/07/05 02:56:22;;;;;;;3.20;1.83;;;;;;;22.59;62.58;98616.97;4365171;32;20086;-71
2022/07/05 02:58:50;;;;;;;4.10;1.80;;;;;;;22.52;63.32;98608.22;4364790;32;20149;-71
2022/07/05 03:01:17;;;;;;;2.90;2.10;;;;;;;22.50;63.90;98613.75;4365140;32;20111;-72
2022/07/05 03:03:45;;;;;;;2.17;1.90;;;;;;;22.47;64.30;98612.34;4351514;32;20118;-72
2022/07/05 03:06:12;;;;;;;1.80;1.65;;;;;;;22.42;64.82;98611.34;4364718;32;20117;-72
2022/07/05 03:08:41;;;;;;;5.70;2.05;;;;;;;22.38;65.31;98618.16;4364929;32;20378;-71
2022/07/05 03:11:09;;;;;;;3.62;1.92;;;;;;;22.37;65.76;98616.53;4364675;32;20159;-71
2022/07/05 03:13:36;;;;;;;2.42;1.98;;;;;;;22.35;66.23;98614.09;4365022;32;20161;-71
2022/07/05 03:16:04;;;;;;;4.05;1.90;;;;;;;22.37;66.36;98606.66;4364768;32;20142;-71
2022/07/05 03:18:32;;;;;;;2.03;1.77;;;;;;;22.37;66.35;98606.66;4364978;32;20158;-71
2022/07/05 03:20:59;;;;;;;2.30;1.92;;;;;;;22.37;66.49;98609.34;4364801;32;20113;-72
2022/07/05 03:23:27;;;;;;;3.03;1.52;;;;;;;22.33;66.93;98608.13;4364921;32;20099;-71
2022/07/05 03:25:55;;;;;;;4.60;1.80;;;;;;;22.31;67.22;98613.69;4364911;32;20611;-71
2022/07/05 03:28:22;;;;;;;2.05;1.85;;;;;;;22.24;67.67;98625.41;4351597;32;20174;-71
2022/07/05 03:30:50;;;;;;;2.20;2.00;;;;;;;22.26;67.82;98636.72;4364909;32;20516;-71
2022/07/05 03:33:17;;;;;;;3.25;1.90;;;;;;;22.17;68.30;98644.16;4364516;32;20103;-71
2022/07/05 03:35:45;;;;;;;4.12;1.80;;;;;;;22.06;68.76;98637.66;4364567;32;20449;-71
2022/07/05 03:38:12;;;;;;;2.60;2.10;;;;;;;22.10;68.70;98638.84;4364590;32;20091;-71
2022/07/05 03:40:40;;;;;;;2.10;1.73;;;;;;;22.11;68.81;98639.69;4364921;32;20121;-71
2022/07/05 03:43:07;;;;;;;3.00;1.95;;;;;;;22.10;68.87;98644.19;4364503;32;20604;-72
2022/07/05 03:45:35;;;;;;;2.58;1.70;;;;;;;22.17;68.68;98646.00;4364555;32;20166;-71
2022/07/05 03:48:03;;;;;;;2.20;2.00;;;;;;;22.11;68.82;98651.16;4364814;32;20155;-72
2022/07/05 03:50:50;;;;;;;2.87;2.10;;;;;;;22.13;68.69;98656.28;4364953;32;20092;-72
2022/07/05 03:53:18;;;;;;;1.95;1.80;;;;;;;22.11;68.93;98640.50;4364810;32;20094;-71
2022/07/05 03:55:45;;;;;;;2.80;1.87;;;;;;;22.11;68.51;98645.81;4364812;32;20225;-71
2022/07/05 03:58:13;;;;;;;4.68;1.70;;;;;;;22.09;68.51;98650.56;4364335;32;20088;-71
2022/07/05 04:00:41;;;;;;;5.55;1.75;;;;;;;22.05;68.60;98652.03;4364416;32;20110;-71
2022/07/05 04:03:10;;;;;;;2.20;2.00;;;;;;;22.07;68.41;98649.12;4364426;32;20083;-71
2022/07/05 04:05:37;;;;;;;1.80;1.70;;;;;;;22.11;68.01;98653.81;4364699;32;20109;-71
2022/07/05 04:08:05;;;;;;;2.55;1.80;;;;;;;22.11;67.55;98648.50;4364617;32;20107;-71
2022/07/05 04:10:32;;;;;;;6.12;3.25;;;;;;;22.15;66.61;98643.56;4364544;32;20121;-72
2022/07/05 04:13:00;;;;;;;2.87;1.80;;;;;;;22.17;65.66;98638.81;4364537;32;20154;-72
2022/07/05 04:15:28;;;;;;;3.25;1.73;;;;;;;22.28;64.57;98658.66;4364445;32;20079;-72
2022/07/05 04:17:56;;;;;;;3.58;1.58;;;;;;;22.38;64.27;98644.84;4364333;32;20103;-71
2022/07/05 04:20:24;;;;;;;2.22;1.60;;;;;;;22.45;63.80;98634.94;4364615;32;20181;-72
2022/07/05 04:22:52;;;;;;;1.90;1.58;;;;;;;22.49;63.53;98642.28;4364353;32;20556;-72
2022/07/05 04:25:19;;;;;;;2.80;1.80;;;;;;;22.54;63.33;98632.81;4364541;32;20130;-72
2022/07/05 04:27:52;;;;;;;4.87;1.75;;;;;;;22.60;63.25;98637.28;4364597;32;20114;-71
2022/07/05 04:30:23;;;;;;;3.62;1.55;;;;;;;22.78;63.03;98633.84;4364210;32;20480;-72
2022/07/05 04:32:51;;;;;;;4.47;1.52;;;;;;;23.01;61.89;98622.50;4364561;32;20511;-71
2022/07/05 04:35:19;;;;;;;2.87;1.60;;;;;;;23.14;61.90;98625.09;4364501;32;20120;-72
2022/07/05 04:37:48;;;;;;;2.22;1.87;;;;;;;23.10;62.37;98621.22;4364128;32;20158;-71
2022/07/05 04:40:16;;;;;;;2.15;1.40;;;;;;;22.96;62.83;98635.72;4364151;32;20125;-72
2022/07/05 04:42:43;;;;;;;2.75;1.60;;;;;;;22.90;62.49;98629.41;4364382;32;20091;-71
2022/07/05 04:45:11;;;;;;;3.33;1.50;;;;;;;22.91;62.29;98632.88;4364480;32;20426;-71
2022/07/05 04:47:38;;;;;;;3.28;1.58;;;;;;;22.93;62.12;98620.16;4364380;32;20115;-72
2022/07/05 04:50:06;;;;;;;2.33;1.33;;;;;;;22.96;61.97;98622.37;4364303;32;20091;-72
2022/07/05 04:52:34;;;;;;;2.53;1.80;;;;;;;22.96;61.82;98614.34;4363921;32;20485;-71
2022/07/05 04:55:01;;;;;;;1.92;1.45;;;;;;;23.02;61.79;98624.16;4363595;32;20079;-72
2022/07/05 04:57:39;;;;;;;3.50;1.37;;;;;;;23.00;61.74;98619.03;4364020;32;20103;-71
2022/07/05 05:00:09;;;;;;;3.17;1.65;;;;;;;23.08;61.63;98622.47;4364063;32;20398;-72
2022/07/05 05:02:36;;;;;;;2.08;1.87;;;;;;;23.06;61.62;98617.34;4363844;32;20091;-71
2022/07/05 05:05:04;;;;;;;1.92;1.40;;;;;;;23.13;61.32;98615.41;4363860;32;20087;-72
2022/07/05 05:07:32;;;;;;;3.62;1.50;;;;;;;23.17;61.07;98610.47;4363946;32;20182;-71
2022/07/05 05:10:05;;;;;;;3.53;1.20;;;;;;;23.09;60.75;98616.06;4363891;32;20107;-71
2022/07/05 05:12:32;;;;;;;1.90;1.60;;;;;;;23.19;60.32;98608.38;4363826;32;20086;-72
2022/07/05 05:15:00;;;;;;;2.92;1.30;;;;;;;23.21;59.62;98614.34;4363708;32;20153;-72
2022/07/05 05:17:40;;;;;;;2.78;1.45;;;;;;;23.26;59.30;98622.50;4363850;32;20484;-72
2022/07/05 05:20:16;;;;;;;2.58;1.40;;;;;;;23.29;58.41;98626.59;4363806;32;20121;-72
2022/07/05 05:22:44;;;;;;;6.62;1.40;;;;;;;23.28;58.69;98616.91;4363982;32;20365;-72
2022/07/05 05:25:12;;;;;;;3.30;1.50;;;;;;;23.37;58.60;98623.59;4363574;32;20098;-71
2022/07/05 05:27:47;;;;;;;2.47;1.20;;;;;;;23.45;58.56;98623.31;4363769;32;20117;-71
2022/07/05 05:30:17;;;;;;;1.40;1.30;;;;;;;23.44;58.24;98626.19;4363520;32;20206;-71
2022/07/05 05:32:44;;;;;;;5.47;1.50;;;;;;;23.47;58.05;98631.91;4363748;32;20651;-71
2022/07/05 05:35:12;;;;;;;2.90;1.73;;;;;;;23.53;57.88;98633.69;4363518;32;20099;-72
2022/07/05 05:37:53;;;;;;;2.08;1.65;;;;;;;23.67;57.88;98634.31;4363535;32;20096;-71
2022/07/05 05:40:21;;;;;;;2.42;1.42;;;;;;;23.63;58.01;98641.16;4363610;32;20438;-71
2022/07/05 05:42:50;;;;;;;1.67;1.58;;;;;;;23.50;58.22;98636.81;4363527;32;20464;-72
2022/07/05 05:45:17;;;;;;;1.80;1.35;;;;;;;23.46;58.46;98637.47;4357344;32;20087;-72
2022/07/05 05:47:57;;;;;;;2.83;1.30;;;;;;;23.37;58.75;98635.09;4363468;32;20115;-72
2022/07/05 05:50:25;;;;;;;2.10;1.80;;;;;;;23.31;59.02;98643.19;4350226;32;20656;-72
2022/07/05 05:52:53;;;;;;;4.72;1.80;;;;;;;23.29;59.25;98645.28;4363336;32;20436;-72
2022/07/05 05:55:21;;;;;;;1.62;1.52;;;;;;;23.21;59.28;98651.75;4363311;32;20133;-72
2022/07/05 05:57:49;;;;;;;4.50;1.42;;;;;;;23.21;59.43;98655.22;4363134;32;20114;-72
2022/07/05 06:00:16;;;;;;;1.42;1.20;;;;;;;23.19;59.96;98659.16;4363208;32;20099;-72
2022/07/05 06:02:45;;;;;;;2.40;1.50;;;;;;;23.17;60.07;98662.06;4363434;32;20079;-72
2022/07/05 06:05:13;;;;;;;3.03;1.70;;;;;;;23.16;59.93;98647.03;4363328;32;20090;-72
2022/07/05 06:07:47;;;;;;;2.90;2.05;;;;;;;23.11;60.12;98648.78;4365228;32;20095;-71
2022/07/05 06:10:16;;;;;;;3.17;1.17;;;;;;;23.31;59.52;98653.91;4365212;32;20442;-72
2022/07/05 06:12:44;;;;;;;2.37;1.30;;;;;;;23.36;58.74;98643.34;4365211;32;20106;-72
2022/07/05 06:15:11;;;;;;;4.22;1.37;;;;;;;23.46;58.63;98650.84;4364856;32;20145;-72
2022/07/05 06:17:39;;;;;;;1.50;1.10;;;;;;;23.53;58.69;98652.41;4365246;32;20158;-72
2022/07/05 06:20:11;;;;;;;1.48;1.15;;;;;;;23.59;58.82;98655.22;4365240;32;20095;-72
2022/07/05 06:22:39;;;;;;;4.95;1.25;;;;;;;23.65;58.43;98648.97;4365137;32;20145;-72
2022/07/05 06:25:06;;;;;;;4.40;1.42;;;;;;;23.71;58.22;98656.09;4365072;32;20429;-72
2022/07/05 06:27:55;;;;;;;3.85;1.33;;;;;;;23.86;57.76;98650.38;4365112;32;20150;-71
2022/07/05 06:30:24;;;;;;;2.85;1.10;;;;;;;24.08;57.84;98656.03;4365210;32;20109;-72
2022/07/05 06:32:53;;;;;;;11.48;1.30;;;;;;;24.04;57.53;98646.81;4365121;32;20190;-72
2022/07/05 06:35:21;;;;;;;7.35;1.17;;;;;;;23.86;57.85;98656.56;4365079;32;20416;-72
2022/07/05 06:37:55;;;;;;;2.08;1.33;;;;;;;24.09;57.83;98652.31;4364938;32;20126;-71
2022/07/05 06:40:26;;;;;;;2.03;1.20;;;;;;;24.16;58.12;98647.66;4365162;32;20087;-72
2022/07/05 06:42:54;;;;;;;1.92;1.12;;;;;;;24.18;58.27;98642.09;4365033;32;20101;-71
2022/07/05 06:45:22;;;;;;;4.25;1.40;;;;;;;24.29;58.40;98659.25;4365072;32;20527;-71
2022/07/05 06:48:07;;;;;;;1.98;1.15;;;;;;;24.39;58.00;98654.97;4364788;32;20142;-72
2022/07/05 06:50:40;;;;;;;3.22;1.62;;;;;;;24.56;57.19;98647.06;4364896;32;20162;-71
2022/07/05 06:53:08;;;;;;;3.13;1.17;;;;;;;24.58;56.52;98649.53;4364985;32;20079;-71
2022/07/05 06:55:35;;;;;;;1.65;1.20;;;;;;;24.55;56.61;98649.97;4364808;32;20095;-71
2022/07/05 06:58:07;;;;;;;1.75;1.15;;;;;;;24.49;57.39;98654.38;4364838;32;20176;-72
2022/07/05 07:00:40;;;;;;;2.05;1.10;;;;;;;24.67;56.80;98660.75;4364967;32;20207;-72
2022/07/05 07:03:27;;;;;;;2.25;2.05;;;;;;;24.84;56.14;98656.31;4364762;32;20087;-71
2022/07/05 07:06:15;;;;;;;1.40;1.30;;;;;;;24.92;55.67;98653.28;4353771;32;20592;-72
2022/07/05 07:11:29;;;;;;;3.08;1.60;;;;;;;25.07;55.64;98655.50;4364826;32;20109;-72
2022/07/05 07:13:57;;;;;;;2.05;1.48;;;;;;;24.49;56.84;98659.75;4351155;32;20091;-72
2022/07/05 07:16:24;;;;;;;5.40;1.33;;;;;;;24.56;56.79;98647.06;4364388;32;20088;-72
2022/07/05 07:18:51;;;;;;;1.40;1.20;;;;;;;24.75;57.01;98647.78;4364607;32;20473;-71
2022/07/05 07:21:40;;;;;;;3.22;1.23;;;;;;;24.44;56.51;98648.91;4364623;32;20094;-72
2022/07/05 07:24:08;;;;;;;2.58;1.23;;;;;;;24.29;56.78;98637.84;4364717;32;20548;-72
2022/07/05 07:29:23;;;;;;;4.55;1.25;;;;;;;24.22;58.08;98633.38;4364797;32;20173;-71
2022/07/05 07:31:50;;;;;;;4.12;1.40;;;;;;;24.00;58.53;98637.63;4364566;32;20479;-71
2022/07/05 07:34:17;;;;;;;4.20;1.58;;;;;;;23.84;59.57;98629.16;4364535;32;20099;-71
2022/07/05 07:36:44;;;;;;;2.35;1.48;;;;;;;24.21;58.50;98631.75;4364569;32;20142;-72
2022/07/05 07:39:11;;;;;;;2.10;1.10;;;;;;;24.27;58.64;98636.19;4364560;32;20122;-72
2022/07/05 07:41:39;;;;;;;4.57;1.10;;;;;;;24.34;57.78;98645.97;4364579;32;20167;-72
2022/07/05 07:44:06;;;;;;;5.03;1.25;;;;;;;24.21;57.70;98637.13;4364439;32;20153;-71
2022/07/05 07:46:34;;;;;;;3.30;1.23;;;;;;;24.31;57.11;98641.09;4364483;32;20583;-72
2022/07/05 07:49:01;;;;;;;1.67;1.10;;;;;;;23.95;57.99;98629.47;4364396;32;20495;-71
2022/07/05 07:51:29;;;;;;;3.78;1.00;;;;;;;23.66;59.00;98631.88;4364285;32;20178;-72
2022/07/05 07:53:57;;;;;;;2.42;1.10;;;;;;;23.44;59.62;98632.34;4364685;32;20113;-72
2022/07/05 07:56:44;;;;;;;3.33;1.35;;;;;;;23.48;59.88;98636.22;4363921;32;20115;-71
2022/07/05 07:59:11;;;;;;;1.83;1.08;;;;;;;23.37;60.35;98636.97;4364550;32;20095;-72
2022/07/05 08:01:38;;;;;;;1.75;0.95;;;;;;;23.54;60.36;98639.84;4364522;32;20159;-71
2022/07/05 08:04:12;;;;;;;2.23;0.90;;;;;;;23.76;60.13;98634.84;4364547;32;20327;-71
2022/07/05 08:06:41;;;;;;;4.70;1.10;;;;;;;24.00;59.66;98645.66;4364321;32;20113;-72
2022/07/05 08:09:09;;;;;;;3.12;1.05;;;;;;;23.70;60.55;98636.56;4364181;32;20107;-71
2022/07/05 08:11:43;;;;;;;1.83;1.10;;;;;;;23.70;60.43;98622.37;4364383;32;20095;-72
2022/07/05 08:14:10;;;;;;;4.35;1.30;;;;;;;23.69;60.38;98634.91;4364202;32;20139;-71
2022/07/05 08:16:37;;;;;;;2.05;1.42;;;;;;;23.83;60.39;98624.88;4364469;32;20433;-72
2022/07/05 08:21:50;;;;;;;4.87;1.10;;;;;;;24.40;58.42;98634.34;4364359;32;20091;-71
2022/07/05 08:24:17;;;;;;;2.67;1.23;;;;;;;24.38;58.09;98647.16;4364341;32;20445;-72
2022/07/05 08:26:45;;;;;;;1.35;1.20;;;;;;;24.42;58.09;98645.63;4364234;32;20429;-72
2022/07/05 08:29:12;;;;;;;0.80;0.80;;;;;;;24.68;58.06;98646.28;4363413;32;20441;-71
2022/07/05 08:31:50;;;;;;;2.25;1.20;;;;;;;24.50;58.94;98623.88;4364165;32;20145;-72
2022/07/05 08:34:18;;;;;;;1.17;1.00;;;;;;;24.74;58.14;98640.81;4364317;32;20113;-72
2022/07/05 08:36:46;;;;;;;1.55;1.08;;;;;;;24.55;58.63;98647.28;4364242;32;20083;-72
2022/07/05 08:39:14;;;;;;;3.42;1.55;;;;;;;24.50;59.61;98645.31;4364288;32;20121;-72
2022/07/05 08:41:43;;;;;;;1.08;0.90;;;;;;;24.37;59.96;98656.22;4364333;32;20103;-72
2022/07/05 08:44:14;;;;;;;2.00;1.35;;;;;;;24.17;60.76;98649.31;4364247;32;20179;-72
2022/07/05 08:46:42;;;;;;;4.78;1.42;;;;;;;24.49;59.91;98649.03;4350922;32;20385;-72
2022/07/05 08:49:10;;;;;;;2.40;1.00;;;;;;;24.41;58.82;98658.22;4350890;32;20146;-72
2022/07/05 08:51:40;;;;;;;1.35;1.10;;;;;;;24.05;58.37;98659.97;4363995;32;20201;-72
2022/07/05 08:54:09;;;;;;;4.55;1.30;;;;;;;23.96;58.69;98656.00;4364143;32;20511;-71
2022/07/05 08:56:37;;;;;;;1.30;1.20;;;;;;;23.63;60.31;98664.41;4364055;32;20091;-71
2022/07/05 08:59:24;;;;;;;2.03;1.02;;;;;;;23.60;61.00;98667.53;4364073;32;20099;-72
2022/07/05 09:01:52;;;;;;;2.65;1.33;;;;;;;23.61;61.84;98661.16;4363927;32;20118;-72
2022/07/05 09:04:20;;;;;;;4.07;1.42;;;;;;;23.50;63.05;98666.22;4350660;32;20117;-72
2022/07/05 09:06:48;;;;;;;3.00;1.48;;;;;;;23.26;64.10;98653.75;4350507;32;20083;-72
2022/07/05 09:09:18;;;;;;;2.53;1.48;;;;;;;23.35;63.93;98660.44;4363958;32;20087;-72
2022/07/05 09:11:48;;;;;;;2.67;1.30;;;;;;;23.23;64.06;98651.53;4363938;32;20434;-72
2022/07/05 09:14:35;;;;;;;2.33;1.30;;;;;;;23.13;64.79;98663.53;4363384;32;20086;-72
2022/07/05 09:17:03;;;;;;;1.87;1.40;;;;;;;23.35;64.14;98655.09;4363739;32;20087;-72
2022/07/05 09:19:31;;;;;;;2.83;1.50;;;;;;;23.56;63.05;98651.94;4350554;32;20443;-72
2022/07/05 09:22:05;;;;;;;4.32;1.87;;;;;;;23.74;62.86;98652.97;4363757;32;20099;-72
2022/07/05 09:24:42;;;;;;;4.82;1.50;;;;;;;23.52;64.37;98656.09;4364224;32;20105;-72
2022/07/05 09:27:11;;;;;;;1.65;1.27;;;;;;;23.51;64.90;98651.81;4363744;32;20071;-71
2022/07/05 09:29:38;;;;;;;2.03;1.50;;;;;;;23.40;64.97;98668.59;4363929;32;20433;-71
2022/07/05 09:32:24;;;;;;;3.95;1.58;;;;;;;23.44;64.66;98669.78;4363618;32;20618;-72
2022/07/05 09:34:52;;;;;;;2.28;1.50;;;;;;;23.37;64.82;98663.69;4363639;32;20109;-72
2022/07/05 09:37:19;;;;;;;2.42;1.70;;;;;;;23.32;65.49;98650.19;4363507;32;20149;-72
2022/07/05 09:39:46;;;;;;;4.20;1.80;;;;;;;23.16;65.59;98655.06;4351075;32;20123;-71
2022/07/05 09:42:20;;;;;;;2.87;1.87;;;;;;;22.94;66.59;98656.53;4365499;32;20103;-72
2022/07/05 09:44:50;;;;;;;7.87;2.20;;;;;;;22.97;66.68;98682.78;4365441;32;20082;-72
2022/07/05 09:47:21;;;;;;;4.32;1.90;;;;;;;22.59;70.89;98678.38;4359261;32;20075;-72
2022/07/05 09:49:51;;;;;;;8.48;1.83;;;;;;;22.27;73.24;98681.03;4365486;32;20094;-72
2022/07/05 09:52:38;;;;;;;2.35;1.83;;;;;;;22.30;74.14;98685.94;4365198;32;20503;-71
2022/07/05 09:55:10;;;;;;;2.37;2.00;;;;;;;21.97;75.45;98692.28;4365213;32;20100;-72
2022/07/05 09:57:39;;;;;;;2.70;1.73;;;;;;;22.07;74.71;98707.81;4365358;32;20513;-71
2022/07/05 10:00:12;;;;;;;3.28;1.70;;;;;;;21.80;75.61;98713.28;4365313;32;20468;-71
2022/07/05 10:02:42;;;;;;;7.27;1.90;;;;;;;21.75;76.21;98716.56;4365302;32;20102;-72
2022/07/05 10:05:12;;;;;;;3.65;1.77;;;;;;;21.93;76.04;98713.22;4365220;32;20449;-71
2022/07/05 10:07:51;;;;;;;5.32;1.80;;;;;;;21.70;76.96;98732.41;4365461;32;20130;-71
2022/07/05 10:10:21;;;;;;;5.28;1.80;;;;;;;21.28;79.07;98721.19;4365496;32;20121;-72
2022/07/05 10:12:50;;;;;;;2.53;1.80;;;;;;;21.21;79.70;98717.72;4364998;32;20113;-72
2022/07/05 10:15:22;;;;;;;2.17;1.60;;;;;;;21.28;79.93;98714.00;4365037;32;20079;-71
2022/07/05 10:17:59;;;;;;;3.37;1.70;;;;;;;21.41;79.66;98702.53;4365195;32;20461;-71
2022/07/05 10:20:40;;;;;;;5.03;1.90;;;;;;;21.21;80.73;98712.37;4353898;32;20785;-72
2022/07/05 10:23:18;;;;;;;2.87;2.00;;;;;;;21.22;81.22;98720.16;4352207;32;20111;-71
2022/07/05 10:25:48;;;;;;;2.75;2.22;;;;;;;21.02;82.41;98740.69;4365244;32;20146;-72
2022/07/05 10:28:16;;;;;;;4.70;2.05;;;;;;;20.93;83.58;98742.75;4365142;32;20090;-72
2022/07/05 10:30:45;;;;;;;3.40;2.30;;;;;;;20.99;84.17;98749.91;4365246;32;20151;-71
2022/07/05 10:33:16;;;;;;;5.43;2.30;;;;;;;20.99;85.16;98738.44;4365069;32;20169;-72
2022/07/05 10:35:43;;;;;;;4.37;2.60;;;;;;;20.79;86.60;98733.94;4365156;32;20150;-71
2022/07/05 10:38:11;;;;;;;3.25;2.47;;;;;;;20.98;86.45;98734.13;4365092;32;20102;-71
2022/07/05 10:40:41;;;;;;;2.87;2.53;;;;;;;21.06;85.75;98732.09;4351726;32;20462;-72
2022/07/05 10:43:10;;;;;;;4.22;2.62;;;;;;;21.06;86.08;98745.41;4351625;32;20446;-71
2022/07/05 10:45:39;;;;;;;3.95;2.75;;;;;;;21.01;88.30;98739.03;4365231;32;20471;-71
2022/07/05 10:48:09;;;;;;;5.62;2.80;;;;;;;21.04;87.79;98754.62;4364872;32;20117;-71
2022/07/05 10:51:16;;;;;;;3.65;2.90;;;;;;;21.11;87.95;98743.97;4364728;32;20410;-71
2022/07/05 10:53:46;;;;;;;2.67;2.47;;;;;;;21.15;86.12;98758.50;4364899;32;20095;-72
2022/07/05 10:56:14;;;;;;;3.95;2.72;;;;;;;21.15;86.69;98743.34;4364994;32;20145;-72
2022/07/05 10:58:46;;;;;;;3.92;2.90;;;;;;;21.21;86.50;98747.03;4364895;32;20087;-71
2022/07/05 11:01:19;;;;;;;3.65;2.65;;;;;;;21.32;86.07;98757.06;4364857;32;20436;-72
2022/07/05 11:03:52;;;;;;;5.35;2.72;;;;;;;21.49;84.49;98753.97;4364949;32;20087;-71
2022/07/05 11:06:20;;;;;;;5.90;2.50;;;;;;;21.40;85.31;98762.16;4365187;32;20087;-71
2022/07/05 11:08:57;;;;;;;4.20;2.55;;;;;;;21.18;86.72;98774.06;4364818;32;20088;-72
2022/07/05 11:12:02;;;;;;;6.07;3.05;;;;;;;21.21;88.26;98771.00;4364927;32;20091;-72
2022/07/05 11:15:10;;;;;;;3.70;3.40;;;;;;;21.22;89.48;98775.31;4355843;32;20591;-71
2022/07/05 11:18:23;;;;;;;5.70;3.60;;;;;;;21.08;91.37;98777.97;4364805;32;20166;-71
2022/07/05 11:21:21;;;;;;;5.12;3.60;;;;;;;21.13;93.25;98772.03;4353530;32;20109;-72
2022/07/05 11:24:23;;;;;;;4.22;3.80;;;;;;;21.06;93.62;98768.53;4364506;32;20435;-72
2022/07/05 11:27:11;;;;;;;4.47;3.58;;;;;;;20.89;93.77;98752.16;4364871;32;20126;-72
2022/07/05 11:29:58;;;;;;;4.75;3.45;;;;;;;20.94;93.66;98730.22;4364495;32;20129;-72
2022/07/05 11:32:45;;;;;;;4.15;3.75;;;;;;;20.83;94.44;98718.34;4364354;32;20109;-72
2022/07/05 11:35:33;;;;;;;4.85;3.08;;;;;;;20.86;94.79;98712.63;4364471;32;20166;-71
2022/07/05 11:38:20;;;;;;;7.15;3.47;;;;;;;20.83;95.32;98721.03;4364496;32;20158;-71
2022/07/05 11:41:14;;;;;;;3.37;2.97;;;;;;;20.99;93.91;98735.78;4364762;32;20477;-72
2022/07/05 11:44:02;;;;;;;5.20;3.97;;;;;;;21.05;93.96;98738.44;4364799;32;20146;-71
2022/07/05 11:46:50;;;;;;;5.65;3.85;;;;;;;20.93;93.08;98745.41;4364656;32;20143;-72
2022/07/05 11:49:37;;;;;;;4.15;3.10;;;;;;;21.01;91.50;98758.50;4353438;32;20095;-72
2022/07/05 11:52:28;;;;;;;4.00;3.58;;;;;;;21.21;91.12;98749.69;4364533;32;20114;-71
2022/07/05 11:55:16;;;;;;;4.72;3.22;;;;;;;21.16;90.54;98758.28;4364812;32;20105;-72
2022/07/05 11:58:08;;;;;;;6.90;3.72;;;;;;;21.25;92.08;98722.41;4364523;32;20096;-72
2022/07/05 12:00:56;;;;;;;3.65;3.12;;;;;;;21.05;93.34;98725.12;4364514;32;20462;-71